Warning: Javascript must be enabled to use all the features on this page!


Page Loading - Please Wait...

Click to hideNews Bulletins

Peak Streamflow for the Nation

USGS 10311300 EAGLE VALLEY CK AT CARSON CITY, NV

Carson City, Nevada
Hydrologic Unit Code 16050201
Latitude  39°09'54.99", Longitude 119°43'20.01" NAD83
Drainage area 34.4  square miles
Gage datum 4,620 feet above NGVD29
Output formats
Table
Graph
Tab-separated file
peakfq (watstore) format
Reselect output format
Water
Year
Date Gage
Height
(feet)
Stream-
flow
(cfs)
1979 1979-01-11   1752,C
1982 1982-02-15   3252,C
1985 1985-02-08 6.01 150C
1986 1986-02-19 8.85 1,110C
1987 1987-02-13 5.55 127C
1988 1988-04-14 5.55 127C
1989 1988-11-23 6.21 115C
1990 1989-11-25 5.70 77.0C
1991 1991-03-03 5.21 51.0C
1992 1992-03-30 5.91 90.0C
1993 1992-12-09 6.60 175C
1994 1993-10-05 6.82 221C
1995 1995-03-10 8.87 1,020C
1996 1996-03-04 7.73 999C
1997 1997-01-02 9.32 990C
1998 1998-03-24 8.58 680C
1999 1999-01-18 6.97 227C
2000 2000-01-24 7.11 212C
2001 2000-11-29 7.09 209C
2002 2001-12-02 7.44 280C
2003 2002-11-08 7.686 338C
2004 2004-02-25 6.06 68.0C
2005 2004-10-20 6.07 55.0C
2006 2005-12-31 10.78 1,830C
2007 2007-02-11 6.13 75.0C
2008 2008-01-04 9.85 189C
2009 2009-03-02 9.02 83.0C
2010 2009-10-13 10.10 233C
2011 2010-10-24 10.63 344C
2012 2012-01-21 10.71 364C
2013 2012-12-02 11.32 235C
2014 2014-02-09 10.39 290C
2015 2015-02-08 9.93 111C
2016 2016-01-30 10.68 124C
2017 2017-01-11 13.10 1,340C
2018 2018-03-22 11.47 290C
2019 2019-02-14 11.69 344C
2020 2019-12-07 10.90 169C
2021 2020-11-18 9.78 107C
?
  Peak Gage-Height Qualification Codes.
?
  Peak Streamflow Qualification Codes.